GMME Airport Information

Runway Information
Runway 04 Length 11483 ft width 148 ft
Elevation 273 ft Threshold 0 ft Heading 31
Runway 22 Length 11483 ft Width 148 ft
Elevation 240 ft Threshold 0 ft Heading 211
Airport Frequencies
Type APP Name APP Frequency 118.9 MHZ
Type TWR Name TWR Frequency 118.3 MHZ
Airport Navaids
Type VOR-DME Name Rabat Frequency 116500 KHZ
Type NDB Name Rabat Frequency 332 KHZ
Airport Weather Information & NOTAM
ADDS - METARS form results

(0951 UTC 26 February 2021)
Data provider http://aviationweather.gov/metar/data/
 
METAR text: GMME 260930Z 19006KT 5000 SCT020 BKN070 14/12 Q1023 NOSIG
Conditions at: GMME (RABAT/SALE (RMAF, MA) observed 0930 UTC 26 February 2021
Temperature: 14.0°C (57°F)
Dewpoint: 12.0°C (54°F) [RH = 88%]
Pressure (altimeter): 30.21 inches Hg (1023.0 mb)
Winds: from the S (190 degrees) at 7 MPH (6 knots; 3.1 m/s)
Visibility: 3 miles ( 5 km)
Ceiling: 7000 feet AGL
Clouds: scattered clouds at 2000 feet AGL
broken clouds at 7000 feet AGL
Weather: no significant weather observed at this time

METAR text: GMME 260900Z 20006KT 5000 SCT020 BKN070 13/12 Q1023 NOSIG
Conditions at: GMME (RABAT/SALE (RMAF, MA) observed 0900 UTC 26 February 2021
Temperature: 13.0°C (55°F)
Dewpoint: 12.0°C (54°F) [RH = 94%]
Pressure (altimeter): 30.21 inches Hg (1023.0 mb)
Winds: from the SSW (200 degrees) at 7 MPH (6 knots; 3.1 m/s)
Visibility: 3 miles ( 5 km)
Ceiling: 7000 feet AGL
Clouds: scattered clouds at 2000 feet AGL
broken clouds at 7000 feet AGL
Weather: no significant weather observed at this time

Forecast for: GMME (RABAT/SALE (RMAF, MA)
Text: TAF GMME 260500Z 2606/2712 32010KT 5000 BKN020 BKN080
Forecast period: 0600 UTC 26 February 2021 to 1200 UTC 27 February 2021
Forecast type: FROM: standard forecast or significant change
Winds: from the NW (320 degrees) at 12 MPH (10 knots; 5.1 m/s)
Visibility: 3 miles (5 km)
Ceiling: 2000 feet AGL
Clouds: broken clouds at 2000 feet AGL
broken clouds at 8000 feet AGL
Weather: no significant weather forecast for this period
Text: TEMPO 2606/2612 28012KT 4000 SHRA SCT013TCU BKN016
Forecast period: 0600 to 1200 UTC 26 February 2021
Forecast type: TEMPORARY: The following changes expected for less than half the time period
Winds: from the W (280 degrees) at 14 MPH (12 knots; 6.2 m/s)
Visibility: 2.49 miles (4.01 km)
Ceiling: 1600 feet AGL
Clouds: scattered clouds at 1300 feet AGL
broken clouds at 1600 feet AGL
Weather: SHRA  (rain showers)
Text: TEMPO 2617/2703 VRB02KT RA SCT010 BKN015
Forecast period: 1700 UTC 26 February 2021 to 0300 UTC 27 February 2021
Forecast type: TEMPORARY: The following changes expected for less than half the time period
Winds: variable direction winds at 2 MPH (2 knots; 1.0 m/s)
Visibility: missing
Ceiling: 1500 feet AGL
Clouds: scattered clouds at 1000 feet AGL
broken clouds at 1500 feet AGL
Weather: RA  (moderate rain)